sensor_id;sensor_type;location;lat;lon;timestamp;pressure;altitude;pressure_sealevel;temperature;humidity
25658;BME280;13517;59.320;18.042;2022-09-09T00:00:24;101868.31;;;10.30;86.74
25658;BME280;13517;59.320;18.042;2022-09-09T00:02:54;101866.28;;;10.35;86.51
25658;BME280;13517;59.320;18.042;2022-09-09T00:05:28;101864.13;;;10.43;85.59
25658;BME280;13517;59.320;18.042;2022-09-09T00:07:58;101844.47;;;10.40;85.32
25658;BME280;13517;59.320;18.042;2022-09-09T00:10:37;101862.69;;;10.55;85.13
25658;BME280;13517;59.320;18.042;2022-09-09T00:18:48;101862.19;;;10.66;84.11
25658;BME280;13517;59.320;18.042;2022-09-09T00:21:17;101852.03;;;10.71;83.89
25658;BME280;13517;59.320;18.042;2022-09-09T00:23:47;101843.19;;;10.68;83.13
25658;BME280;13517;59.320;18.042;2022-09-09T00:31:26;101855.47;;;10.94;80.77
25658;BME280;13517;59.320;18.042;2022-09-09T00:33:53;101848.81;;;11.01;79.51
25658;BME280;13517;59.320;18.042;2022-09-09T00:36:22;101851.34;;;11.04;79.03
25658;BME280;13517;59.320;18.042;2022-09-09T00:39:01;101804.47;;;10.86;78.15
25658;BME280;13517;59.320;18.042;2022-09-09T00:44:35;101837.09;;;11.20;77.46
25658;BME280;13517;59.320;18.042;2022-09-09T00:49:36;101850.94;;;11.31;77.22
25658;BME280;13517;59.320;18.042;2022-09-09T00:55:16;101836.56;;;11.31;76.76
25658;BME280;13517;59.320;18.042;2022-09-09T00:57:46;101829.28;;;11.31;76.70
25658;BME280;13517;59.320;18.042;2022-09-09T01:08:22;101825.34;;;11.39;77.03
25658;BME280;13517;59.320;18.042;2022-09-09T01:10:54;101833.13;;;11.45;77.19
25658;BME280;13517;59.320;18.042;2022-09-09T01:13:30;101821.34;;;11.46;77.01
25658;BME280;13517;59.320;18.042;2022-09-09T01:15:58;101823.94;;;11.49;77.24
25658;BME280;13517;59.320;18.042;2022-09-09T01:18:51;101817.69;;;11.47;77.06
25658;BME280;13517;59.320;18.042;2022-09-09T01:26:45;101817.56;;;11.50;77.75
25658;BME280;13517;59.320;18.042;2022-09-09T01:29:16;101810.22;;;11.52;78.08
25658;BME280;13517;59.320;18.042;2022-09-09T01:31:52;101811.13;;;11.53;77.95
25658;BME280;13517;59.320;18.042;2022-09-09T01:34:18;101796.75;;;11.51;77.93
25658;BME280;13517;59.320;18.042;2022-09-09T01:36:51;101821.69;;;11.57;78.11
25658;BME280;13517;59.320;18.042;2022-09-09T01:39:19;101813.56;;;11.57;78.59
25658;BME280;13517;59.320;18.042;2022-09-09T01:41:45;101811.13;;;11.53;78.66
25658;BME280;13517;59.320;18.042;2022-09-09T01:44:10;101803.22;;;11.48;79.30
25658;BME280;13517;59.320;18.042;2022-09-09T01:46:36;101812.84;;;11.54;79.30
25658;BME280;13517;59.320;18.042;2022-09-09T01:49:04;101809.19;;;11.55;79.12
25658;BME280;13517;59.320;18.042;2022-09-09T01:51:30;101810.88;;;11.57;79.58
25658;BME280;13517;59.320;18.042;2022-09-09T01:53:56;101802.81;;;11.56;79.55
25658;BME280;13517;59.320;18.042;2022-09-09T02:02:10;101797.34;;;11.57;81.12
25658;BME280;13517;59.320;18.042;2022-09-09T02:05:00;101791.03;;;11.57;81.48
25658;BME280;13517;59.320;18.042;2022-09-09T02:07:39;101795.50;;;11.58;81.57
25658;BME280;13517;59.320;18.042;2022-09-09T02:10:17;101785.56;;;11.58;81.63
25658;BME280;13517;59.320;18.042;2022-09-09T02:12:48;101784.59;;;11.60;81.93
25658;BME280;13517;59.320;18.042;2022-09-09T02:15:33;101767.00;;;11.51;82.40
25658;BME280;13517;59.320;18.042;2022-09-09T02:18:00;101772.03;;;11.58;82.21
25658;BME280;13517;59.320;18.042;2022-09-09T02:20:32;101778.31;;;11.59;82.92
25658;BME280;13517;59.320;18.042;2022-09-09T02:22:59;101769.78;;;11.67;82.80
25658;BME280;13517;59.320;18.042;2022-09-09T02:25:28;101771.53;;;11.68;83.10
25658;BME280;13517;59.320;18.042;2022-09-09T02:27:55;101766.28;;;11.65;82.99
25658;BME280;13517;59.320;18.042;2022-09-09T02:30:20;101752.91;;;11.62;83.63
25658;BME280;13517;59.320;18.042;2022-09-09T02:32:48;101766.09;;;11.68;83.46
25658;BME280;13517;59.320;18.042;2022-09-09T02:35:19;101775.75;;;11.74;83.74
25658;BME280;13517;59.320;18.042;2022-09-09T02:37:46;101757.38;;;11.63;83.92
25658;BME280;13517;59.320;18.042;2022-09-09T02:40:12;101740.50;;;11.57;84.13
25658;BME280;13517;59.320;18.042;2022-09-09T02:42:43;101769.28;;;11.76;84.55
25658;BME280;13517;59.320;18.042;2022-09-09T02:45:10;101765.47;;;11.80;84.62
25658;BME280;13517;59.320;18.042;2022-09-09T02:47:41;101768.97;;;11.82;84.89
25658;BME280;13517;59.320;18.042;2022-09-09T02:50:22;101766.25;;;11.82;85.23
25658;BME280;13517;59.320;18.042;2022-09-09T02:55:38;101762.94;;;11.77;87.02
25658;BME280;13517;59.320;18.042;2022-09-09T02:58:09;101756.13;;;11.86;85.86
25658;BME280;13517;59.320;18.042;2022-09-09T03:00:37;101748.13;;;11.84;85.60
25658;BME280;13517;59.320;18.042;2022-09-09T03:03:05;101747.59;;;11.94;86.00
25658;BME280;13517;59.320;18.042;2022-09-09T03:05:31;101722.41;;;11.76;85.72
25658;BME280;13517;59.320;18.042;2022-09-09T03:07:57;101752.94;;;11.95;86.34
25658;BME280;13517;59.320;18.042;2022-09-09T03:10:22;101741.75;;;11.85;86.10
25658;BME280;13517;59.320;18.042;2022-09-09T03:12:48;101751.28;;;11.93;86.56
25658;BME280;13517;59.320;18.042;2022-09-09T03:15:13;101745.69;;;11.96;86.58
25658;BME280;13517;59.320;18.042;2022-09-09T03:17:39;101713.41;;;11.75;86.87
25658;BME280;13517;59.320;18.042;2022-09-09T03:20:06;101746.50;;;11.98;87.00
25658;BME280;13517;59.320;18.042;2022-09-09T03:22:32;101747.53;;;11.95;86.97
25658;BME280;13517;59.320;18.042;2022-09-09T03:24:58;101703.72;;;11.71;87.20
25658;BME280;13517;59.320;18.042;2022-09-09T03:27:23;101723.56;;;11.88;87.22
25658;BME280;13517;59.320;18.042;2022-09-09T03:29:49;101735.88;;;11.93;87.26
25658;BME280;13517;59.320;18.042;2022-09-09T03:32:16;101714.81;;;11.82;87.52
25658;BME280;13517;59.320;18.042;2022-09-09T03:34:42;101706.09;;;11.77;86.97
25658;BME280;13517;59.320;18.042;2022-09-09T03:37:08;101731.28;;;11.95;88.00
25658;BME280;13517;59.320;18.042;2022-09-09T03:39:33;101730.47;;;11.93;87.59
25658;BME280;13517;59.320;18.042;2022-09-09T03:41:59;101730.56;;;11.92;87.77
25658;BME280;13517;59.320;18.042;2022-09-09T03:44:24;101722.78;;;11.85;87.91
25658;BME280;13517;59.320;18.042;2022-09-09T03:46:50;101736.78;;;11.94;88.06
25658;BME280;13517;59.320;18.042;2022-09-09T03:49:15;101721.13;;;11.83;87.84
25658;BME280;13517;59.320;18.042;2022-09-09T03:51:42;101722.53;;;11.90;88.04
25658;BME280;13517;59.320;18.042;2022-09-09T03:54:07;101730.41;;;11.95;88.09
25658;BME280;13517;59.320;18.042;2022-09-09T03:56:35;101698.56;;;11.82;87.85
25658;BME280;13517;59.320;18.042;2022-09-09T03:59:01;101723.69;;;12.02;87.88
25658;BME280;13517;59.320;18.042;2022-09-09T04:01:26;101699.97;;;11.90;87.75
25658;BME280;13517;59.320;18.042;2022-09-09T04:03:52;101719.91;;;12.06;87.39
25658;BME280;13517;59.320;18.042;2022-09-09T04:06:18;101721.56;;;12.09;87.09
25658;BME280;13517;59.320;18.042;2022-09-09T04:08:45;101702.97;;;12.01;87.30
25658;BME280;13517;59.320;18.042;2022-09-09T04:11:13;101710.88;;;12.06;87.07
25658;BME280;13517;59.320;18.042;2022-09-09T04:13:40;101718.59;;;12.14;87.23
25658;BME280;13517;59.320;18.042;2022-09-09T04:16:07;101684.44;;;11.93;86.88
25658;BME280;13517;59.320;18.042;2022-09-09T04:18:33;101716.59;;;12.17;87.46
25658;BME280;13517;59.320;18.042;2022-09-09T04:20:59;101699.00;;;12.08;86.73
25658;BME280;13517;59.320;18.042;2022-09-09T04:23:26;101684.91;;;12.02;87.23
25658;BME280;13517;59.320;18.042;2022-09-09T04:25:55;101722.78;;;12.19;87.05
25658;BME280;13517;59.320;18.042;2022-09-09T04:28:23;101711.94;;;12.19;87.26
25658;BME280;13517;59.320;18.042;2022-09-09T04:30:50;101730.38;;;12.29;87.28
25658;BME280;13517;59.320;18.042;2022-09-09T04:33:15;101695.88;;;12.16;86.96
25658;BME280;13517;59.320;18.042;2022-09-09T04:35:49;101719.53;;;12.29;87.04
25658;BME280;13517;59.320;18.042;2022-09-09T04:38:16;101721.22;;;12.31;86.05
25658;BME280;13517;59.320;18.042;2022-09-09T04:40:43;101696.59;;;12.20;86.42
25658;BME280;13517;59.320;18.042;2022-09-09T04:43:09;101711.59;;;12.25;85.81
25658;BME280;13517;59.320;18.042;2022-09-09T04:45:35;101710.72;;;12.25;85.33
25658;BME280;13517;59.320;18.042;2022-09-09T04:48:00;101720.88;;;12.37;84.93
25658;BME280;13517;59.320;18.042;2022-09-09T04:50:27;101723.50;;;12.39;84.11
25658;BME280;13517;59.320;18.042;2022-09-09T04:52:53;101719.75;;;12.42;83.08
25658;BME280;13517;59.320;18.042;2022-09-09T04:55:19;101730.47;;;12.43;82.70
25658;BME280;13517;59.320;18.042;2022-09-09T04:57:45;101696.84;;;12.31;81.48
25658;BME280;13517;59.320;18.042;2022-09-09T05:00:11;101721.41;;;12.44;80.82
25658;BME280;13517;59.320;18.042;2022-09-09T05:02:38;101714.13;;;12.45;79.68
25658;BME280;13517;59.320;18.042;2022-09-09T05:05:07;101686.63;;;12.36;78.40
25658;BME280;13517;59.320;18.042;2022-09-09T05:07:33;101725.34;;;12.55;78.44
25658;BME280;13517;59.320;18.042;2022-09-09T05:09:58;101728.66;;;12.60;77.93
25658;BME280;13517;59.320;18.042;2022-09-09T05:12:24;101711.09;;;12.51;76.81
25658;BME280;13517;59.320;18.042;2022-09-09T05:14:54;101719.66;;;12.59;75.62
25658;BME280;13517;59.320;18.042;2022-09-09T05:17:19;101707.84;;;12.60;74.83
25658;BME280;13517;59.320;18.042;2022-09-09T05:19:44;101714.84;;;12.64;74.82
25658;BME280;13517;59.320;18.042;2022-09-09T05:22:10;101734.84;;;12.78;74.32
25658;BME280;13517;59.320;18.042;2022-09-09T05:24:37;101729.94;;;12.85;73.92
25658;BME280;13517;59.320;18.042;2022-09-09T05:27:03;101697.16;;;12.73;73.19
25658;BME280;13517;59.320;18.042;2022-09-09T05:29:29;101709.22;;;12.84;73.03
25658;BME280;13517;59.320;18.042;2022-09-09T05:31:54;101712.13;;;12.80;72.54
25658;BME280;13517;59.320;18.042;2022-09-09T05:34:20;101737.16;;;13.00;72.01
25658;BME280;13517;59.320;18.042;2022-09-09T05:36:46;101728.34;;;12.97;71.61
25658;BME280;13517;59.320;18.042;2022-09-09T05:39:11;101730.28;;;12.94;71.31
25658;BME280;13517;59.320;18.042;2022-09-09T05:41:37;101726.94;;;12.89;70.61
25658;BME280;13517;59.320;18.042;2022-09-09T05:44:02;101721.09;;;12.81;70.44
25658;BME280;13517;59.320;18.042;2022-09-09T05:46:28;101734.03;;;12.92;69.44
25658;BME280;13517;59.320;18.042;2022-09-09T05:48:54;101717.19;;;12.87;69.55
25658;BME280;13517;59.320;18.042;2022-09-09T05:51:24;101750.38;;;13.06;68.85
25658;BME280;13517;59.320;18.042;2022-09-09T05:53:52;101749.25;;;13.11;68.83
25658;BME280;13517;59.320;18.042;2022-09-09T05:56:22;101734.22;;;13.05;68.05
25658;BME280;13517;59.320;18.042;2022-09-09T05:58:50;101749.31;;;13.09;68.01
25658;BME280;13517;59.320;18.042;2022-09-09T06:01:26;101733.75;;;12.97;68.09
25658;BME280;13517;59.320;18.042;2022-09-09T06:03:52;101749.78;;;13.01;68.07
25658;BME280;13517;59.320;18.042;2022-09-09T06:06:22;101739.03;;;13.00;67.21
25658;BME280;13517;59.320;18.042;2022-09-09T06:08:55;101742.50;;;13.02;66.67
25658;BME280;13517;59.320;18.042;2022-09-09T06:11:28;101750.94;;;12.97;66.51
25658;BME280;13517;59.320;18.042;2022-09-09T06:13:56;101740.16;;;12.96;66.79
25658;BME280;13517;59.320;18.042;2022-09-09T06:16:24;101750.22;;;12.93;66.04
25658;BME280;13517;59.320;18.042;2022-09-09T06:18:50;101753.91;;;12.92;65.83
25658;BME280;13517;59.320;18.042;2022-09-09T06:21:18;101748.75;;;12.88;66.22
25658;BME280;13517;59.320;18.042;2022-09-09T06:23:44;101752.25;;;12.90;65.87
25658;BME280;13517;59.320;18.042;2022-09-09T06:26:18;101751.47;;;12.88;65.78
25658;BME280;13517;59.320;18.042;2022-09-09T06:28:47;101753.91;;;12.76;64.46
25658;BME280;13517;59.320;18.042;2022-09-09T06:31:16;101729.84;;;12.86;65.68
25658;BME280;13517;59.320;18.042;2022-09-09T06:33:43;101747.72;;;12.90;65.06
25658;BME280;13517;59.320;18.042;2022-09-09T06:36:17;101732.16;;;12.78;65.76
25658;BME280;13517;59.320;18.042;2022-09-09T06:38:44;101756.00;;;12.87;65.65
25658;BME280;13517;59.320;18.042;2022-09-09T06:41:11;101744.19;;;12.88;64.98
25658;BME280;13517;59.320;18.042;2022-09-09T06:43:37;101756.69;;;12.91;64.84
25658;BME280;13517;59.320;18.042;2022-09-09T06:46:05;101750.44;;;12.90;65.20
25658;BME280;13517;59.320;18.042;2022-09-09T06:48:31;101739.22;;;12.80;65.06
25658;BME280;13517;59.320;18.042;2022-09-09T06:51:09;101751.19;;;12.92;64.46
25658;BME280;13517;59.320;18.042;2022-09-09T06:53:37;101754.69;;;12.94;64.60
25658;BME280;13517;59.320;18.042;2022-09-09T06:56:28;101748.28;;;12.96;63.67
25658;BME280;13517;59.320;18.042;2022-09-09T06:58:56;101728.72;;;12.90;63.63
25658;BME280;13517;59.320;18.042;2022-09-09T07:01:24;101731.06;;;12.97;62.71
25658;BME280;13517;59.320;18.042;2022-09-09T07:03:52;101762.59;;;13.14;62.79
25658;BME280;13517;59.320;18.042;2022-09-09T07:08:56;101749.66;;;13.19;62.89
25658;BME280;13517;59.320;18.042;2022-09-09T07:11:24;101751.63;;;13.31;62.67
25658;BME280;13517;59.320;18.042;2022-09-09T07:13:52;101747.75;;;13.35;62.46
25658;BME280;13517;59.320;18.042;2022-09-09T07:16:19;101717.09;;;13.19;62.37
25658;BME280;13517;59.320;18.042;2022-09-09T07:18:46;101753.59;;;13.29;62.35
25658;BME280;13517;59.320;18.042;2022-09-09T07:21:14;101765.34;;;13.44;61.69
25658;BME280;13517;59.320;18.042;2022-09-09T07:23:40;101746.13;;;13.33;60.90
25658;BME280;13517;59.320;18.042;2022-09-09T07:26:13;101768.84;;;13.46;59.68
25658;BME280;13517;59.320;18.042;2022-09-09T07:28:39;101766.22;;;13.45;60.53
25658;BME280;13517;59.320;18.042;2022-09-09T07:31:05;101771.13;;;13.38;60.60
25658;BME280;13517;59.320;18.042;2022-09-09T07:33:32;101740.00;;;13.29;60.08
25658;BME280;13517;59.320;18.042;2022-09-09T07:36:18;101765.00;;;13.51;60.07
25658;BME280;13517;59.320;18.042;2022-09-09T07:38:49;101765.69;;;13.54;59.55
25658;BME280;13517;59.320;18.042;2022-09-09T07:41:19;101769.00;;;13.59;59.88
25658;BME280;13517;59.320;18.042;2022-09-09T07:43:46;101763.28;;;13.64;59.47
25658;BME280;13517;59.320;18.042;2022-09-09T07:46:14;101767.84;;;13.78;58.83
25658;BME280;13517;59.320;18.042;2022-09-09T07:48:47;101766.59;;;13.69;58.33
25658;BME280;13517;59.320;18.042;2022-09-09T07:51:17;101765.78;;;13.67;59.50
25658;BME280;13517;59.320;18.042;2022-09-09T07:53:45;101766.47;;;13.71;60.13
25658;BME280;13517;59.320;18.042;2022-09-09T07:56:14;101775.75;;;13.83;60.81
25658;BME280;13517;59.320;18.042;2022-09-09T07:58:42;101765.44;;;14.02;60.37
25658;BME280;13517;59.320;18.042;2022-09-09T08:01:12;101769.50;;;14.24;60.12
25658;BME280;13517;59.320;18.042;2022-09-09T08:03:38;101761.28;;;14.26;59.93
25658;BME280;13517;59.320;18.042;2022-09-09T08:06:05;101766.13;;;14.35;59.05
25658;BME280;13517;59.320;18.042;2022-09-09T08:08:32;101765.19;;;14.22;58.87
25658;BME280;13517;59.320;18.042;2022-09-09T08:11:14;101779.16;;;14.30;58.51
25658;BME280;13517;59.320;18.042;2022-09-09T08:13:41;101780.66;;;14.49;58.66
25658;BME280;13517;59.320;18.042;2022-09-09T08:16:16;101780.84;;;14.60;57.94
25658;BME280;13517;59.320;18.042;2022-09-09T08:18:42;101781.59;;;14.77;58.25
25658;BME280;13517;59.320;18.042;2022-09-09T08:21:13;101783.38;;;14.78;58.00
25658;BME280;13517;59.320;18.042;2022-09-09T08:23:40;101787.63;;;14.67;58.17
25658;BME280;13517;59.320;18.042;2022-09-09T08:26:34;101794.81;;;14.68;57.19
25658;BME280;13517;59.320;18.042;2022-09-09T08:29:01;101775.78;;;14.83;58.20
25658;BME280;13517;59.320;18.042;2022-09-09T08:31:32;101792.22;;;15.09;57.44
25658;BME280;13517;59.320;18.042;2022-09-09T08:33:59;101794.28;;;15.05;58.03
25658;BME280;13517;59.320;18.042;2022-09-09T08:36:27;101780.44;;;15.08;57.84
25658;BME280;13517;59.320;18.042;2022-09-09T08:38:55;101796.38;;;15.15;57.76
25658;BME280;13517;59.320;18.042;2022-09-09T08:41:50;101785.03;;;15.08;57.26
25658;BME280;13517;59.320;18.042;2022-09-09T08:45:03;101789.59;;;15.07;55.27
25658;BME280;13517;59.320;18.042;2022-09-09T08:50:22;101787.41;;;15.40;56.47
25658;BME280;13517;59.320;18.042;2022-09-09T08:55:47;101787.31;;;15.55;56.75
25658;BME280;13517;59.320;18.042;2022-09-09T09:01:02;101782.75;;;15.68;56.85
25658;BME280;13517;59.320;18.042;2022-09-09T09:09:13;101774.13;;;15.48;56.50
25658;BME280;13517;59.320;18.042;2022-09-09T09:12:02;101795.84;;;15.63;56.50
25658;BME280;13517;59.320;18.042;2022-09-09T09:14:35;101779.94;;;15.70;56.68
25658;BME280;13517;59.320;18.042;2022-09-09T09:17:17;101774.69;;;15.53;56.05
25658;BME280;13517;59.320;18.042;2022-09-09T09:19:44;101780.13;;;15.53;56.58
25658;BME280;13517;59.320;18.042;2022-09-09T09:27:18;101786.63;;;15.38;56.97
25658;BME280;13517;59.320;18.042;2022-09-09T09:29:48;101778.38;;;15.39;56.74
25658;BME280;13517;59.320;18.042;2022-09-09T09:32:18;101761.06;;;15.41;56.71
25658;BME280;13517;59.320;18.042;2022-09-09T09:34:51;101765.19;;;15.46;56.76
25658;BME280;13517;59.320;18.042;2022-09-09T09:37:23;101767.72;;;15.49;56.99
25658;BME280;13517;59.320;18.042;2022-09-09T09:39:53;101780.28;;;15.65;57.26
25658;BME280;13517;59.320;18.042;2022-09-09T09:42:19;101773.50;;;15.71;56.76
25658;BME280;13517;59.320;18.042;2022-09-09T09:44:44;101784.31;;;15.72;57.07
25658;BME280;13517;59.320;18.042;2022-09-09T09:49:51;101768.38;;;15.79;56.87
25658;BME280;13517;59.320;18.042;2022-09-09T09:52:21;101765.59;;;15.93;56.65
25658;BME280;13517;59.320;18.042;2022-09-09T09:54:47;101729.81;;;15.72;56.14
25658;BME280;13517;59.320;18.042;2022-09-09T09:57:16;101760.78;;;15.71;56.00
25658;BME280;13517;59.320;18.042;2022-09-09T09:59:43;101761.53;;;15.60;56.40
25658;BME280;13517;59.320;18.042;2022-09-09T10:04:42;101740.00;;;15.30;56.62
25658;BME280;13517;59.320;18.042;2022-09-09T10:07:26;101750.34;;;15.24;55.33
25658;BME280;13517;59.320;18.042;2022-09-09T10:09:56;101739.78;;;15.33;55.67
25658;BME280;13517;59.320;18.042;2022-09-09T10:17:53;101764.69;;;15.14;56.22
25658;BME280;13517;59.320;18.042;2022-09-09T10:25:59;101758.31;;;15.00;56.63
25658;BME280;13517;59.320;18.042;2022-09-09T10:36:20;101755.22;;;14.64;56.77
25658;BME280;13517;59.320;18.042;2022-09-09T10:38:48;101756.00;;;14.52;57.36
25658;BME280;13517;59.320;18.042;2022-09-09T10:47:18;101754.94;;;14.54;57.21
25658;BME280;13517;59.320;18.042;2022-09-09T10:55:43;101753.88;;;14.57;58.02
25658;BME280;13517;59.320;18.042;2022-09-09T10:58:20;101742.22;;;14.40;58.51
25658;BME280;13517;59.320;18.042;2022-09-09T11:01:06;101740.13;;;14.16;58.83
25658;BME280;13517;59.320;18.042;2022-09-09T11:03:37;101749.56;;;14.25;58.65
25658;BME280;13517;59.320;18.042;2022-09-09T11:06:06;101729.06;;;14.20;58.77
25658;BME280;13517;59.320;18.042;2022-09-09T11:08:38;101754.78;;;14.28;59.37
25658;BME280;13517;59.320;18.042;2022-09-09T11:11:29;101722.78;;;14.05;59.01
25658;BME280;13517;59.320;18.042;2022-09-09T11:14:03;101723.84;;;14.02;58.71
25658;BME280;13517;59.320;18.042;2022-09-09T11:16:44;101744.22;;;14.09;58.68
25658;BME280;13517;59.320;18.042;2022-09-09T11:21:52;101742.34;;;13.95;58.52
25658;BME280;13517;59.320;18.042;2022-09-09T11:24:29;101752.66;;;14.05;58.79
25658;BME280;13517;59.320;18.042;2022-09-09T11:27:17;101747.22;;;14.05;59.01
25658;BME280;13517;59.320;18.042;2022-09-09T11:30:20;101748.97;;;14.06;58.90
25658;BME280;13517;59.320;18.042;2022-09-09T11:38:26;101740.28;;;14.28;59.74
25658;BME280;13517;59.320;18.042;2022-09-09T11:41:03;101732.25;;;14.41;59.26
25658;BME280;13517;59.320;18.042;2022-09-09T11:43:38;101720.00;;;14.48;60.02
25658;BME280;13517;59.320;18.042;2022-09-09T11:46:05;101727.16;;;14.49;60.03
25658;BME280;13517;59.320;18.042;2022-09-09T11:48:37;101726.59;;;14.44;60.31
25658;BME280;13517;59.320;18.042;2022-09-09T11:51:25;101709.72;;;14.24;60.28
25658;BME280;13517;59.320;18.042;2022-09-09T11:54:33;101713.91;;;14.30;60.58
25658;BME280;13517;59.320;18.042;2022-09-09T11:56:44;101704.09;;;14.27;60.29
25658;BME280;13517;59.320;18.042;2022-09-09T12:06:56;101713.88;;;14.44;60.46
25658;BME280;13517;59.320;18.042;2022-09-09T12:09:56;101722.53;;;14.37;60.51
25658;BME280;13517;59.320;18.042;2022-09-09T12:14:56;101714.81;;;14.58;60.37
25658;BME280;13517;59.320;18.042;2022-09-09T12:17:23;101717.81;;;14.68;60.13
25658;BME280;13517;59.320;18.042;2022-09-09T12:30:36;101714.16;;;15.09;60.33
25658;BME280;13517;59.320;18.042;2022-09-09T12:33:15;101693.78;;;15.02;60.05
25658;BME280;13517;59.320;18.042;2022-09-09T12:35:43;101704.56;;;15.04;60.27
25658;BME280;13517;59.320;18.042;2022-09-09T12:38:17;101703.31;;;14.95;60.42
25658;BME280;13517;59.320;18.042;2022-09-09T12:40:54;101722.94;;;15.00;60.55
25658;BME280;13517;59.320;18.042;2022-09-09T12:43:22;101690.28;;;14.87;60.88
25658;BME280;13517;59.320;18.042;2022-09-09T12:45:51;101694.81;;;14.87;61.01
25658;BME280;13517;59.320;18.042;2022-09-09T12:48:27;101716.28;;;14.91;60.58
25658;BME280;13517;59.320;18.042;2022-09-09T12:50:55;101695.91;;;14.84;60.63
25658;BME280;13517;59.320;18.042;2022-09-09T12:58:19;101686.34;;;14.91;60.59
25658;BME280;13517;59.320;18.042;2022-09-09T13:00:52;101680.16;;;15.02;59.88
25658;BME280;13517;59.320;18.042;2022-09-09T13:03:21;101673.56;;;15.06;59.78
25658;BME280;13517;59.320;18.042;2022-09-09T13:05:47;101701.91;;;15.30;59.68
25658;BME280;13517;59.320;18.042;2022-09-09T13:08:14;101693.53;;;15.46;59.19
25658;BME280;13517;59.320;18.042;2022-09-09T13:10:53;101696.59;;;15.54;59.52
25658;BME280;13517;59.320;18.042;2022-09-09T13:13:38;101704.19;;;15.49;59.58
25658;BME280;13517;59.320;18.042;2022-09-09T13:16:06;101694.72;;;15.42;59.91
25658;BME280;13517;59.320;18.042;2022-09-09T13:18:40;101697.63;;;15.25;59.54
25658;BME280;13517;59.320;18.042;2022-09-09T13:21:06;101700.13;;;15.16;59.26
25658;BME280;13517;59.320;18.042;2022-09-09T13:23:33;101683.78;;;15.03;59.73
25658;BME280;13517;59.320;18.042;2022-09-09T13:28:48;101676.56;;;14.89;60.36
25658;BME280;13517;59.320;18.042;2022-09-09T13:31:33;101689.06;;;14.64;60.43
25658;BME280;13517;59.320;18.042;2022-09-09T13:34:22;101684.28;;;14.67;60.62
25658;BME280;13517;59.320;18.042;2022-09-09T13:36:55;101689.06;;;14.64;60.50
25658;BME280;13517;59.320;18.042;2022-09-09T13:39:22;101674.47;;;14.65;60.71
25658;BME280;13517;59.320;18.042;2022-09-09T13:41:48;101684.66;;;14.76;60.99
25658;BME280;13517;59.320;18.042;2022-09-09T13:44:18;101674.44;;;14.79;60.72
25658;BME280;13517;59.320;18.042;2022-09-09T13:46:45;101666.50;;;14.76;60.68
25658;BME280;13517;59.320;18.042;2022-09-09T13:51:42;101674.81;;;14.88;60.72
25658;BME280;13517;59.320;18.042;2022-09-09T13:54:12;101665.69;;;14.89;60.54
25658;BME280;13517;59.320;18.042;2022-09-09T13:56:39;101668.94;;;14.94;60.52
25658;BME280;13517;59.320;18.042;2022-09-09T13:59:09;101678.19;;;14.91;60.57
25658;BME280;13517;59.320;18.042;2022-09-09T14:01:35;101658.25;;;14.78;60.52
25658;BME280;13517;59.320;18.042;2022-09-09T14:04:02;101674.59;;;14.91;60.37
25658;BME280;13517;59.320;18.042;2022-09-09T14:06:27;101681.88;;;14.90;60.26
25658;BME280;13517;59.320;18.042;2022-09-09T14:08:54;101676.00;;;14.83;60.28
25658;BME280;13517;59.320;18.042;2022-09-09T14:11:20;101683.94;;;14.87;60.18
25658;BME280;13517;59.320;18.042;2022-09-09T14:13:47;101671.63;;;14.81;60.30
25658;BME280;13517;59.320;18.042;2022-09-09T14:16:15;101669.31;;;14.75;60.49
25658;BME280;13517;59.320;18.042;2022-09-09T14:18:41;101671.97;;;14.62;60.38
25658;BME280;13517;59.320;18.042;2022-09-09T14:21:07;101679.97;;;14.50;60.72
25658;BME280;13517;59.320;18.042;2022-09-09T14:23:34;101654.97;;;14.30;60.77
25658;BME280;13517;59.320;18.042;2022-09-09T14:25:59;101674.94;;;14.44;60.90
25658;BME280;13517;59.320;18.042;2022-09-09T14:28:24;101659.81;;;14.40;60.90
25658;BME280;13517;59.320;18.042;2022-09-09T14:30:50;101673.78;;;14.48;60.25
25658;BME280;13517;59.320;18.042;2022-09-09T14:33:16;101668.53;;;14.45;60.00
25658;BME280;13517;59.320;18.042;2022-09-09T14:35:42;101676.22;;;14.66;60.12
25658;BME280;13517;59.320;18.042;2022-09-09T14:38:09;101649.44;;;14.60;59.74
25658;BME280;13517;59.320;18.042;2022-09-09T14:40:36;101669.31;;;14.75;59.91
25658;BME280;13517;59.320;18.042;2022-09-09T14:43:03;101651.31;;;14.59;60.12
25658;BME280;13517;59.320;18.042;2022-09-09T14:45:28;101666.91;;;14.70;60.08
25658;BME280;13517;59.320;18.042;2022-09-09T14:47:54;101640.94;;;14.51;60.70
25658;BME280;13517;59.320;18.042;2022-09-09T14:50:21;101658.53;;;14.46;61.09
25658;BME280;13517;59.320;18.042;2022-09-09T14:52:47;101672.03;;;14.47;61.06
25658;BME280;13517;59.320;18.042;2022-09-09T14:55:14;101683.97;;;14.44;61.05
25658;BME280;13517;59.320;18.042;2022-09-09T14:57:40;101667.00;;;14.41;61.30
25658;BME280;13517;59.320;18.042;2022-09-09T15:00:07;101667.31;;;14.36;61.34
25658;BME280;13517;59.320;18.042;2022-09-09T15:02:34;101665.38;;;14.24;61.56
25658;BME280;13517;59.320;18.042;2022-09-09T15:04:59;101643.59;;;14.11;61.54
25658;BME280;13517;59.320;18.042;2022-09-09T15:07:25;101645.50;;;14.09;62.47
25658;BME280;13517;59.320;18.042;2022-09-09T15:09:52;101650.47;;;14.02;62.50
25658;BME280;13517;59.320;18.042;2022-09-09T15:12:18;101635.44;;;13.82;62.42